Lebanon, IN (46052)

7:11 AM EST on January 30, 2015 (GMT -0500)
Boone County Airport | Change Station
CLOSE
Current Station
Personal Weather Station
Location: Lebanon, IN
Elevation: 959 ft
Nearby Weather Stations
Active Advisory: Special Statement

Elev 959 ft 40.00 °N, 86.44 °W | Updated 11 minutes ago

Overcast
Overcast
26.1 °F
Feels Like 18 °F
N
7.8
Wind Variable Wind from North

Today
High -- | Low -- °F
--% Chance of Precip.
Yesterday
High -- | Low -- °F
Precip. -- in
7:56 AM 6:02 PM
Waxing Gibbous, 82% visible
Pressure 30.39 in
Visibility 10.0 miles
Clouds Overcast 4900 ft
Windchill 18 °F
Dew Point 19 °F
Humidity 74%
Rainfall 0.00 in
Snow Depth Not available.
UV 0 out of 12
Pollen .40 out of 12
Air Quality Not available.
Flu Activity Not available.
METAR KTYQ 301155Z AUTO 34013G17KT 10SM OVC049 M03/M08 A3039 RMK AO2 T10271085 10006 21027

More Conditions Fewer Conditions

Pressure 30.39 in
Visibility 10.0 miles
Clouds Overcast 4900 ft
Windchill 18 °F
Dew Point 19 °F
Humidity 74%
Rainfall 0.00 in
Snow Depth Not available.
UV 0 out of 12
Pollen .40 out of 12
Air Quality Not available.
Flu Activity Not available.
METAR KTYQ 301155Z AUTO 34013G17KT 10SM OVC049 M03/M08 A3039 RMK AO2 T10271085 10006 21027

More Conditions Fewer Conditions

10-Day Weather Forecast

Almanac

Astronomy

Jan. 30, 2015 Rise Set
Actual Time
Civil Twilight
Nautical Twilight
Astronomical Twilight
Moon
Length of Visible Light
Length of Day
Tomorrow will be .
, % of the Moon is Illuminated

Today's Extremes

State Highs State Lows

Community

WunderPhotos

Upload Photos

1,791,738 photos uploaded!

WunderBlogs® & News

Nearby

Air Quality

  Air Quality AQ Index Pollutant
Not available.

Snow Depth

Station Depth Elevation

Earthquake Activity

City Distance Mag. Time & Date
Minimum magnitude displayed is 2.5.

Coastal Water Temperatures

Place Temperature

Nearby Weather Stations